createdAt,value
2022-10-09T00:14:15.335Z,3.60
2022-10-09T00:36:02.949Z,3.20
2022-10-09T00:57:49.443Z,3.50
2022-10-09T01:19:51.412Z,3.40
2022-10-09T01:41:38.051Z,3.30
2022-10-09T02:03:27.200Z,2.90
2022-10-09T02:25:13.877Z,3.10
2022-10-09T02:46:59.759Z,3.40
2022-10-09T03:08:47.559Z,3.00
2022-10-09T03:30:33.268Z,2.80
2022-10-09T03:52:19.011Z,2.60
2022-10-09T04:14:05.149Z,3.20
2022-10-09T04:35:53.624Z,2.60
2022-10-09T04:57:39.730Z,2.80
2022-10-09T05:26:03.626Z,3.00
2022-10-09T05:47:49.413Z,2.70
2022-10-09T06:26:10.515Z,3.00
2022-10-09T06:47:56.394Z,2.90
2022-10-09T07:09:43.215Z,3.70
2022-10-09T07:31:29.396Z,3.30
2022-10-09T07:53:15.301Z,3.00
2022-10-09T08:15:01.024Z,2.40
2022-10-09T08:36:47.191Z,2.70
2022-10-09T08:58:35.956Z,2.30
2022-10-09T09:20:27.053Z,2.20
2022-10-09T09:42:18.809Z,2.40
2022-10-09T10:26:13.690Z,1.80
2022-10-09T10:48:03.515Z,1.90
2022-10-09T11:09:59.691Z,1.80
2022-10-09T11:31:51.716Z,2.00
2022-10-09T11:53:40.088Z,1.90
2022-10-09T12:15:29.673Z,1.60
2022-10-09T12:37:18.526Z,2.00
2022-10-09T12:59:07.045Z,1.60
2022-10-09T13:21:03.861Z,1.70
2022-10-09T13:42:55.267Z,2.00
2022-10-09T14:04:41.366Z,1.80
2022-10-09T14:26:28.060Z,1.50
2022-10-09T14:48:13.879Z,1.90
2022-10-09T15:09:59.632Z,1.80
2022-10-09T15:31:45.356Z,1.90
2022-10-09T15:53:31.164Z,2.40
2022-10-09T16:15:16.899Z,2.70
2022-10-09T16:37:03.277Z,3.90
2022-10-09T16:58:49.558Z,3.60
2022-10-09T17:20:36.140Z,2.60
2022-10-09T17:48:18.776Z,3.10
2022-10-09T18:10:05.023Z,4.60
2022-10-09T18:31:55.840Z,9.00
2022-10-09T18:53:43.589Z,7.40
2022-10-09T19:15:29.494Z,9.50
2022-10-09T19:37:15.512Z,10.90
2022-10-09T19:59:03.250Z,13.90
2022-10-09T20:20:51.112Z,10.20
2022-10-09T20:42:36.829Z,7.80
2022-10-09T21:04:22.683Z,6.40
2022-10-09T21:26:12.043Z,6.80
2022-10-09T21:47:58.004Z,7.50
2022-10-09T22:26:12.709Z,7.70
2022-10-09T22:47:59.455Z,6.80
2022-10-09T23:10:00.619Z,6.10
2022-10-09T23:31:46.994Z,7.10
2022-10-09T23:53:32.799Z,7.20
